SBI7520 ZJSY-VNKT
Flight info
| Callsign | SBI7520 |
|---|---|
| Flight time | N/A |
| Altitude | 37100 |
| Route | ZJSY N0440F360 KAG2YD KAGUK DCT ASSAD A206 LPB B465 CTG B594 ONEKA G463 RAJ A201 TEBID G463 BIKIK A201 MONDA G463 UXAGA R581 ROMEO GURAS CL02 LOC11 75LOC 45LOC KTM RW02 VNKT |
| Aircraft | B738/M-SDGIWZ/S |
Departure
| Time | 2026-04-28 21:58 |
|---|---|
| Airport | Sanya Phoenix International Airport (ZJSY) |
Arrival
| Time | N/A |
|---|---|
| Airport | Tribhuvan International Airport (VNKT) |
| Time | Latitude | Longitude | Altitude | Speed | Heading |
|---|---|---|---|---|---|
| 2026-04-28 20:58 | 18.30502 | 109.40350 | 100 ft | 0 kts | 351° |
| 2026-04-28 21:55 | 18.30536 | 109.40342 | 100 ft | 9 kts | 331° |
| 2026-04-28 21:56 | 18.30537 | 109.40252 | 100 ft | 15 kts | 217° |
| 2026-04-28 21:56 | 18.30430 | 109.40243 | 100 ft | 17 kts | 214° |
| 2026-04-28 21:56 | 18.30393 | 109.40102 | 100 ft | 24 kts | 262° |
| 2026-04-28 21:56 | 18.30365 | 109.39888 | 100 ft | 33 kts | 262° |
| 2026-04-28 21:57 | 18.30334 | 109.39661 | 100 ft | 28 kts | 250° |
| 2026-04-28 21:57 | 18.30207 | 109.39619 | 100 ft | 19 kts | 167° |
| 2026-04-28 21:57 | 18.30102 | 109.39666 | 100 ft | 15 kts | 110° |
| 2026-04-28 21:57 | 18.30129 | 109.39964 | 100 ft | 77 kts | 82° |
| 2026-04-28 21:58 | 18.30236 | 109.40777 | 100 ft | 144 kts | 82° |
| 2026-04-28 21:58 | 18.30395 | 109.42000 | 202 ft | 185 kts | 82° |
| 2026-04-28 21:58 | 18.30576 | 109.43408 | 600 ft | 205 kts | 82° |
| 2026-04-28 21:58 | 18.30760 | 109.44882 | 1347 ft | 206 kts | 81° |
| 2026-04-28 21:59 | 18.30953 | 109.46375 | 2075 ft | 210 kts | 81° |
| 2026-04-28 21:59 | 18.31150 | 109.47908 | 2749 ft | 214 kts | 81° |
| 2026-04-28 21:59 | 18.31380 | 109.49451 | 3480 ft | 214 kts | 72° |
| 2026-04-28 22:00 | 18.33376 | 109.51538 | 4909 ft | 210 kts | 28° |
| 2026-04-28 22:00 | 18.34791 | 109.52007 | 5420 ft | 220 kts | 3° |
| 2026-04-28 22:00 | 18.36281 | 109.51697 | 6103 ft | 223 kts | 341° |
| 2026-04-28 22:00 | 18.37620 | 109.50864 | 6636 ft | 234 kts | 320° |
| 2026-04-28 22:01 | 18.38508 | 109.49403 | 7178 ft | 244 kts | 289° |
| 2026-04-28 22:01 | 18.38731 | 109.47639 | 7748 ft | 250 kts | 267° |
| 2026-04-28 22:01 | 18.38233 | 109.45887 | 8216 ft | 253 kts | 232° |
| 2026-04-28 22:01 | 18.37021 | 109.44608 | 8857 ft | 243 kts | 211° |
| 2026-04-28 22:02 | 18.35699 | 109.43514 | 9360 ft | 250 kts | 215° |
| 2026-04-28 22:02 | 18.34366 | 109.42312 | 9818 ft | 258 kts | 215° |
| 2026-04-28 22:02 | 18.32956 | 109.41078 | 10294 ft | 266 kts | 214° |
| 2026-04-28 22:02 | 18.31531 | 109.39837 | 10849 ft | 271 kts | 214° |
| 2026-04-28 22:03 | 18.30073 | 109.38567 | 11397 ft | 275 kts | 214° |
| 2026-04-28 22:03 | 18.28592 | 109.37223 | 11720 ft | 290 kts | 216° |
| 2026-04-28 22:03 | 18.27027 | 109.35767 | 11806 ft | 313 kts | 216° |
| 2026-04-28 22:03 | 18.25343 | 109.34210 | 11924 ft | 333 kts | 217° |
| 2026-04-28 22:04 | 18.23560 | 109.32565 | 12005 ft | 353 kts | 217° |
| 2026-04-28 22:04 | 18.21668 | 109.30817 | 12112 ft | 371 kts | 217° |
| 2026-04-28 22:04 | 18.19719 | 109.29012 | 12636 ft | 374 kts | 217° |
| 2026-04-28 22:04 | 18.17763 | 109.27211 | 13009 ft | 382 kts | 217° |
| 2026-04-28 22:05 | 18.15753 | 109.25378 | 13607 ft | 382 kts | 217° |
| 2026-04-28 22:05 | 18.13745 | 109.23551 | 14035 ft | 387 kts | 217° |
| 2026-04-28 22:05 | 18.11711 | 109.21697 | 14545 ft | 389 kts | 217° |
| 2026-04-28 22:05 | 18.09668 | 109.19836 | 15014 ft | 392 kts | 217° |
| 2026-04-28 22:06 | 18.07498 | 109.18127 | 15414 ft | 392 kts | 206° |
| 2026-04-28 22:06 | 18.04975 | 109.17110 | 15869 ft | 385 kts | 186° |
| 2026-04-28 22:06 | 18.02352 | 109.16882 | 16357 ft | 381 kts | 177° |
| 2026-04-28 22:06 | 17.99682 | 109.16822 | 16639 ft | 388 kts | 178° |
| 2026-04-28 22:07 | 17.96974 | 109.16711 | 17132 ft | 389 kts | 179° |
| 2026-04-28 22:07 | 17.94271 | 109.16595 | 17519 ft | 392 kts | 178° |
| 2026-04-28 22:07 | 17.91556 | 109.16494 | 17898 ft | 394 kts | 178° |
| 2026-04-28 22:07 | 17.88840 | 109.16441 | 18294 ft | 395 kts | 176° |
| 2026-04-28 22:08 | 17.86095 | 109.16461 | 18649 ft | 398 kts | 176° |
| 2026-04-28 22:08 | 17.83317 | 109.16479 | 19010 ft | 400 kts | 176° |
| 2026-04-28 22:08 | 17.80556 | 109.16483 | 19353 ft | 402 kts | 176° |
| 2026-04-28 22:08 | 17.77733 | 109.16486 | 19693 ft | 405 kts | 176° |
| 2026-04-28 22:09 | 17.74924 | 109.16490 | 20020 ft | 407 kts | 176° |
| 2026-04-28 22:09 | 17.72115 | 109.16494 | 20337 ft | 409 kts | 176° |
| 2026-04-28 22:09 | 17.69239 | 109.16498 | 20653 ft | 411 kts | 176° |
| 2026-04-28 22:09 | 17.66382 | 109.16501 | 20962 ft | 413 kts | 177° |
| 2026-04-28 22:10 | 17.63543 | 109.16486 | 21306 ft | 414 kts | 178° |
| 2026-04-28 22:10 | 17.60637 | 109.16419 | 21652 ft | 415 kts | 179° |
| 2026-04-28 22:10 | 17.57781 | 109.16273 | 21935 ft | 418 kts | 181° |
| 2026-04-28 22:10 | 17.54861 | 109.16018 | 22177 ft | 422 kts | 183° |
| 2026-04-28 22:11 | 17.51970 | 109.15633 | 22429 ft | 425 kts | 186° |
| 2026-04-28 22:11 | 17.49040 | 109.15089 | 22734 ft | 427 kts | 189° |
| 2026-04-28 22:11 | 17.46178 | 109.14383 | 23047 ft | 428 kts | 192° |
| 2026-04-28 22:11 | 17.43316 | 109.13484 | 23321 ft | 431 kts | 196° |
| 2026-04-28 22:12 | 17.40495 | 109.12386 | 23540 ft | 435 kts | 200° |
| 2026-04-28 22:12 | 17.37752 | 109.11088 | 23750 ft | 438 kts | 204° |
| 2026-04-28 22:12 | 17.35080 | 109.09572 | 24003 ft | 440 kts | 208° |
| 2026-04-28 22:12 | 17.32481 | 109.07820 | 24291 ft | 442 kts | 213° |
| 2026-04-28 22:13 | 17.30049 | 109.05885 | 24551 ft | 443 kts | 218° |
| 2026-04-28 22:13 | 17.27751 | 109.03735 | 24756 ft | 446 kts | 223° |
| 2026-04-28 22:13 | 17.25617 | 109.01384 | 24938 ft | 450 kts | 227° |
| 2026-04-28 22:13 | 17.23671 | 108.98845 | 25148 ft | 452 kts | 232° |
| 2026-04-28 22:14 | 17.21908 | 108.96094 | 25404 ft | 453 kts | 238° |
| 2026-04-28 22:14 | 17.20409 | 108.93248 | 25651 ft | 454 kts | 243° |
| 2026-04-28 22:14 | 17.19129 | 108.90221 | 25860 ft | 455 kts | 248° |
| 2026-04-28 22:14 | 17.18116 | 108.87104 | 26034 ft | 457 kts | 254° |
| 2026-04-28 22:15 | 17.17360 | 108.83839 | 26222 ft | 459 kts | 259° |
| 2026-04-28 22:15 | 17.16899 | 108.80570 | 26443 ft | 459 kts | 265° |
| 2026-04-28 22:15 | 17.16724 | 108.77261 | 26678 ft | 458 kts | 270° |
| 2026-04-28 22:15 | 17.16842 | 108.73920 | 26886 ft | 458 kts | 276° |
| 2026-04-28 22:16 | 17.17252 | 108.70639 | 27051 ft | 459 kts | 282° |
| 2026-04-28 22:16 | 17.17959 | 108.67389 | 27209 ft | 459 kts | 287° |
| 2026-04-28 22:16 | 17.18953 | 108.64230 | 27395 ft | 459 kts | 293° |
| 2026-04-28 22:16 | 17.20235 | 108.61178 | 27615 ft | 457 kts | 298° |
| 2026-04-28 22:17 | 17.21778 | 108.58292 | 27835 ft | 455 kts | 304° |
| 2026-04-28 22:17 | 17.23567 | 108.55595 | 28005 ft | 454 kts | 310° |
| 2026-04-28 22:17 | 17.25597 | 108.53093 | 28189 ft | 452 kts | 316° |
| 2026-04-28 22:17 | 17.27833 | 108.50841 | 28527 ft | 447 kts | 322° |
| 2026-04-28 22:18 | 17.30271 | 108.48838 | 28827 ft | 442 kts | 328° |
| 2026-04-28 22:18 | 17.32833 | 108.47139 | 28976 ft | 441 kts | 334° |
| 2026-04-28 22:18 | 17.35592 | 108.45709 | 29171 ft | 438 kts | 340° |
| 2026-04-28 22:18 | 17.38425 | 108.44611 | 29386 ft | 435 kts | 346° |
| 2026-04-28 22:19 | 17.41352 | 108.43832 | 29551 ft | 434 kts | 352° |
| 2026-04-28 22:19 | 17.47295 | 108.43273 | 29746 ft | 433 kts | 4° |
| 2026-04-28 22:19 | 17.50282 | 108.43497 | 29898 ft | 431 kts | 10° |
| 2026-04-28 22:20 | 17.53225 | 108.44060 | 30093 ft | 429 kts | 16° |
| 2026-04-28 22:20 | 17.56064 | 108.44945 | 30259 ft | 427 kts | 22° |
| 2026-04-28 22:20 | 17.58775 | 108.46139 | 30363 ft | 426 kts | 28° |
| 2026-04-28 22:20 | 17.61352 | 108.47649 | 30577 ft | 423 kts | 34° |
| 2026-04-28 22:21 | 17.63709 | 108.49423 | 30863 ft | 419 kts | 40° |
| 2026-04-28 22:21 | 17.65856 | 108.51454 | 31025 ft | 417 kts | 47° |
| 2026-04-28 22:21 | 17.67788 | 108.53754 | 31141 ft | 417 kts | 53° |
| 2026-04-28 22:21 | 17.69425 | 108.56232 | 31326 ft | 416 kts | 59° |
| 2026-04-28 22:22 | 17.70787 | 108.58908 | 31499 ft | 414 kts | 66° |
| 2026-04-28 22:22 | 17.73313 | 108.64281 | 31616 ft | 418 kts | 51° |
| 2026-04-28 22:22 | 17.75508 | 108.66309 | 31672 ft | 422 kts | 32° |
| 2026-04-28 22:23 | 17.78147 | 108.67610 | 31743 ft | 425 kts | 21° |
| 2026-04-28 22:23 | 17.81019 | 108.68392 | 31775 ft | 431 kts | 8° |
| 2026-04-28 22:23 | 17.84005 | 108.68250 | 31820 ft | 437 kts | 348° |
| 2026-04-28 22:23 | 17.86813 | 108.67001 | 31872 ft | 444 kts | 328° |
| 2026-04-28 22:24 | 17.89039 | 108.64779 | 31927 ft | 450 kts | 308° |
| 2026-04-28 22:24 | 17.92130 | 108.59057 | 32037 ft | 456 kts | 298° |
| 2026-04-28 22:25 | 17.94949 | 108.53046 | 32134 ft | 459 kts | 298° |
| 2026-04-28 22:25 | 17.97779 | 108.47074 | 32233 ft | 462 kts | 298° |
| 2026-04-28 22:26 | 18.00612 | 108.41007 | 32332 ft | 465 kts | 298° |
| 2026-04-28 22:26 | 18.03448 | 108.34910 | 32467 ft | 466 kts | 297° |
| 2026-04-28 22:27 | 18.06282 | 108.28797 | 32640 ft | 466 kts | 297° |
| 2026-04-28 22:27 | 18.09110 | 108.22685 | 32826 ft | 466 kts | 297° |
| 2026-04-28 22:28 | 18.11940 | 108.16555 | 33015 ft | 465 kts | 297° |
| 2026-04-28 22:28 | 18.14739 | 108.10484 | 33201 ft | 465 kts | 297° |
| 2026-04-28 22:29 | 18.17552 | 108.04376 | 33386 ft | 464 kts | 297° |
| 2026-04-28 22:29 | 18.20347 | 107.98301 | 33562 ft | 463 kts | 297° |
| 2026-04-28 22:30 | 18.23148 | 107.92205 | 33734 ft | 463 kts | 297° |
| 2026-04-28 22:30 | 18.25928 | 107.86150 | 33898 ft | 462 kts | 297° |
| 2026-04-28 22:31 | 18.28723 | 107.80053 | 34057 ft | 462 kts | 297° |
| 2026-04-28 22:31 | 18.31489 | 107.74017 | 34206 ft | 461 kts | 297° |
| 2026-04-28 22:32 | 18.33983 | 107.67782 | 34334 ft | 463 kts | 288° |
| 2026-04-28 22:32 | 18.35430 | 107.61213 | 34520 ft | 463 kts | 283° |
| 2026-04-28 22:33 | 18.36786 | 107.54615 | 34642 ft | 463 kts | 284° |
| 2026-04-28 22:33 | 18.38144 | 107.47997 | 34779 ft | 462 kts | 283° |
| 2026-04-28 22:34 | 18.39472 | 107.41386 | 34914 ft | 462 kts | 283° |
| 2026-04-28 22:34 | 18.40793 | 107.34776 | 35044 ft | 462 kts | 283° |
| 2026-04-28 22:35 | 18.42100 | 107.28193 | 35153 ft | 462 kts | 283° |
| 2026-04-28 22:35 | 18.43406 | 107.21589 | 35262 ft | 461 kts | 283° |
| 2026-04-28 22:36 | 18.44709 | 107.14980 | 35369 ft | 461 kts | 283° |
| 2026-04-28 22:36 | 18.46002 | 107.08408 | 35471 ft | 461 kts | 283° |
| 2026-04-28 22:37 | 18.47300 | 107.01797 | 35572 ft | 461 kts | 283° |
| 2026-04-28 22:37 | 18.48590 | 106.95199 | 35671 ft | 461 kts | 283° |
| 2026-04-28 22:38 | 18.49871 | 106.88635 | 35815 ft | 460 kts | 283° |
| 2026-04-28 22:38 | 18.51157 | 106.82029 | 35847 ft | 462 kts | 283° |
| 2026-04-28 22:39 | 18.52447 | 106.75394 | 35857 ft | 465 kts | 283° |
| 2026-04-28 22:39 | 18.53746 | 106.68700 | 35868 ft | 468 kts | 283° |
| 2026-04-28 22:40 | 18.55045 | 106.61993 | 35877 ft | 470 kts | 283° |
| 2026-04-28 22:40 | 18.56351 | 106.55261 | 35884 ft | 473 kts | 283° |
| 2026-04-28 22:41 | 18.57687 | 106.48466 | 35882 ft | 475 kts | 283° |
| 2026-04-28 22:41 | 18.59019 | 106.41664 | 35880 ft | 476 kts | 283° |
| 2026-04-28 22:42 | 18.60354 | 106.34827 | 35877 ft | 476 kts | 283° |
| 2026-04-28 22:42 | 18.61677 | 106.28040 | 35877 ft | 475 kts | 283° |
| 2026-04-28 22:43 | 18.62997 | 106.21252 | 35878 ft | 475 kts | 283° |
| 2026-04-28 22:43 | 18.64316 | 106.14457 | 35881 ft | 475 kts | 283° |
| 2026-04-28 22:44 | 18.65637 | 106.07632 | 35884 ft | 475 kts | 283° |
| 2026-04-28 22:44 | 18.66940 | 106.00826 | 35885 ft | 475 kts | 282° |
| 2026-04-28 22:45 | 18.68240 | 105.94024 | 35885 ft | 475 kts | 282° |
| 2026-04-28 22:45 | 18.69539 | 105.87215 | 35885 ft | 475 kts | 282° |
| 2026-04-28 22:46 | 18.70838 | 105.80393 | 35885 ft | 475 kts | 282° |
| 2026-04-28 22:46 | 18.72129 | 105.73598 | 35884 ft | 475 kts | 282° |
| 2026-04-28 22:47 | 18.73536 | 105.66808 | 35883 ft | 474 kts | 288° |
| 2026-04-28 22:47 | 18.75714 | 105.60277 | 35885 ft | 473 kts | 292° |
| 2026-04-28 22:48 | 18.77940 | 105.53788 | 35885 ft | 473 kts | 291° |
| 2026-04-28 22:48 | 18.80156 | 105.47272 | 35884 ft | 473 kts | 292° |
| 2026-04-28 22:49 | 18.82391 | 105.40738 | 35885 ft | 473 kts | 292° |
| 2026-04-28 22:49 | 18.84609 | 105.34251 | 35884 ft | 473 kts | 291° |
| 2026-04-28 22:50 | 18.86845 | 105.27713 | 35885 ft | 473 kts | 291° |
| 2026-04-28 22:50 | 18.89074 | 105.21187 | 35885 ft | 473 kts | 291° |
| 2026-04-28 22:51 | 18.91281 | 105.14720 | 35885 ft | 471 kts | 291° |
| 2026-04-28 22:51 | 18.93490 | 105.08237 | 35885 ft | 468 kts | 290° |
| 2026-04-28 22:52 | 18.95678 | 105.01811 | 35885 ft | 465 kts | 290° |
| 2026-04-28 22:52 | 18.97848 | 104.95426 | 35885 ft | 461 kts | 289° |
| 2026-04-28 22:53 | 18.99992 | 104.89114 | 35885 ft | 458 kts | 289° |
| 2026-04-28 22:53 | 19.02133 | 104.82800 | 35885 ft | 456 kts | 289° |
| 2026-04-28 22:54 | 19.04271 | 104.76488 | 35885 ft | 455 kts | 289° |
| 2026-04-28 22:54 | 19.06395 | 104.70207 | 35885 ft | 455 kts | 289° |
| 2026-04-28 22:55 | 19.08514 | 104.63934 | 35885 ft | 455 kts | 289° |
| 2026-04-28 22:55 | 19.10631 | 104.57663 | 35885 ft | 455 kts | 289° |
| 2026-04-28 22:56 | 19.12747 | 104.51384 | 35885 ft | 455 kts | 289° |
| 2026-04-28 22:56 | 19.14876 | 104.45061 | 35885 ft | 455 kts | 289° |
| 2026-04-28 22:57 | 19.16984 | 104.38791 | 35885 ft | 454 kts | 289° |
| 2026-04-28 22:57 | 19.19099 | 104.32492 | 35885 ft | 454 kts | 289° |
| 2026-04-28 22:58 | 19.21193 | 104.26247 | 35885 ft | 454 kts | 289° |
| 2026-04-28 22:58 | 19.23307 | 104.19933 | 35885 ft | 455 kts | 289° |
| 2026-04-28 22:59 | 19.25413 | 104.13636 | 35885 ft | 455 kts | 289° |
| 2026-04-28 22:59 | 19.27503 | 104.07378 | 35885 ft | 455 kts | 289° |
| 2026-04-28 23:00 | 19.29605 | 104.01079 | 35885 ft | 455 kts | 289° |
| 2026-04-28 23:00 | 19.31707 | 103.94772 | 35885 ft | 455 kts | 289° |
| 2026-04-28 23:01 | 19.33783 | 103.88485 | 35885 ft | 454 kts | 288° |
| 2026-04-28 23:01 | 19.35836 | 103.82162 | 35885 ft | 454 kts | 288° |
| 2026-04-28 23:02 | 19.37884 | 103.75868 | 35885 ft | 454 kts | 288° |
| 2026-04-28 23:02 | 19.39946 | 103.69524 | 35858 ft | 455 kts | 288° |
| 2026-04-28 23:03 | 19.41985 | 103.63241 | 35858 ft | 454 kts | 288° |
| 2026-04-28 23:03 | 19.44073 | 103.56936 | 35858 ft | 455 kts | 289° |
| 2026-04-28 23:04 | 19.46240 | 103.50644 | 35858 ft | 455 kts | 289° |
| 2026-04-28 23:04 | 19.49455 | 103.41205 | 35858 ft | 455 kts | 289° |
| 2026-04-28 23:05 | 19.51589 | 103.34932 | 35858 ft | 455 kts | 289° |
| 2026-04-28 23:05 | 19.53719 | 103.28657 | 35858 ft | 455 kts | 289° |
| 2026-04-28 23:06 | 19.55856 | 103.22355 | 35858 ft | 455 kts | 289° |
| 2026-04-28 23:06 | 19.57988 | 103.16056 | 35858 ft | 455 kts | 289° |
| 2026-04-28 23:07 | 19.60121 | 103.09748 | 35858 ft | 458 kts | 289° |
| 2026-04-28 23:07 | 19.62270 | 103.03384 | 35858 ft | 461 kts | 289° |
| 2026-04-28 23:08 | 19.64435 | 102.96963 | 35858 ft | 463 kts | 290° |
| 2026-04-28 23:08 | 19.66589 | 102.90569 | 35857 ft | 463 kts | 290° |
| 2026-04-28 23:09 | 19.68752 | 102.84137 | 35858 ft | 462 kts | 290° |
| 2026-04-28 23:09 | 19.70892 | 102.77763 | 35858 ft | 462 kts | 290° |
| 2026-04-28 23:10 | 19.73050 | 102.71331 | 35858 ft | 462 kts | 290° |
| 2026-04-28 23:10 | 19.75189 | 102.64945 | 35858 ft | 461 kts | 290° |
| 2026-04-28 23:11 | 19.77326 | 102.58556 | 35858 ft | 461 kts | 290° |
| 2026-04-28 23:11 | 19.79462 | 102.52164 | 35858 ft | 461 kts | 290° |
| 2026-04-28 23:12 | 19.81598 | 102.45760 | 35858 ft | 461 kts | 290° |
| 2026-04-28 23:12 | 19.83738 | 102.39339 | 35858 ft | 462 kts | 290° |
| 2026-04-28 23:13 | 19.85879 | 102.32903 | 35861 ft | 461 kts | 290° |
| 2026-04-28 23:13 | 19.88006 | 102.26505 | 35868 ft | 461 kts | 290° |
| 2026-04-28 23:14 | 19.90144 | 102.20104 | 35881 ft | 461 kts | 291° |
| 2026-04-28 23:14 | 19.92948 | 102.14006 | 35897 ft | 460 kts | 301° |
| 2026-04-28 23:15 | 19.96097 | 102.08118 | 35906 ft | 461 kts | 300° |
| 2026-04-28 23:15 | 19.99219 | 102.02202 | 35911 ft | 461 kts | 300° |
| 2026-04-28 23:16 | 20.02379 | 101.96281 | 35912 ft | 460 kts | 300° |
| 2026-04-28 23:16 | 20.05522 | 101.90399 | 35912 ft | 460 kts | 300° |
| 2026-04-28 23:17 | 20.08701 | 101.84458 | 35912 ft | 460 kts | 301° |
| 2026-04-28 23:17 | 20.11859 | 101.78554 | 35912 ft | 460 kts | 300° |
| 2026-04-28 23:18 | 20.15000 | 101.72682 | 35912 ft | 460 kts | 301° |
| 2026-04-28 23:18 | 20.18173 | 101.66746 | 35913 ft | 460 kts | 301° |
| 2026-04-28 23:19 | 20.21318 | 101.60856 | 35917 ft | 460 kts | 301° |
| 2026-04-28 23:19 | 20.24462 | 101.54964 | 35923 ft | 460 kts | 301° |
| 2026-04-28 23:20 | 20.27620 | 101.49038 | 35931 ft | 460 kts | 301° |
| 2026-04-28 23:20 | 20.30764 | 101.43134 | 35937 ft | 460 kts | 301° |
| 2026-04-28 23:21 | 20.33907 | 101.37223 | 35939 ft | 460 kts | 301° |
| 2026-04-28 23:21 | 20.37075 | 101.31262 | 35939 ft | 460 kts | 300° |
| 2026-04-28 23:22 | 20.40198 | 101.25378 | 35939 ft | 460 kts | 300° |
| 2026-04-28 23:22 | 20.43344 | 101.19445 | 35939 ft | 460 kts | 300° |
| 2026-04-28 23:23 | 20.46483 | 101.13519 | 35939 ft | 460 kts | 300° |
| 2026-04-28 23:23 | 20.49615 | 101.07600 | 35939 ft | 460 kts | 300° |
| 2026-04-28 23:24 | 20.52754 | 101.01661 | 35939 ft | 460 kts | 300° |
| 2026-04-28 23:24 | 20.55879 | 100.95743 | 35939 ft | 458 kts | 300° |
| 2026-04-28 23:25 | 20.58981 | 100.89862 | 35939 ft | 454 kts | 299° |
| 2026-04-28 23:25 | 20.62063 | 100.84013 | 35939 ft | 451 kts | 299° |
| 2026-04-28 23:26 | 20.65101 | 100.78242 | 35938 ft | 448 kts | 299° |
| 2026-04-28 23:26 | 20.68142 | 100.72459 | 35939 ft | 448 kts | 299° |
| 2026-04-28 23:27 | 20.71198 | 100.66641 | 35939 ft | 449 kts | 299° |
| 2026-04-28 23:27 | 20.74225 | 100.60873 | 35939 ft | 449 kts | 299° |
| 2026-04-28 23:28 | 20.77270 | 100.55064 | 35939 ft | 449 kts | 299° |
| 2026-04-28 23:28 | 20.80281 | 100.49230 | 35938 ft | 449 kts | 296° |
| 2026-04-28 23:29 | 20.82531 | 100.43039 | 35940 ft | 448 kts | 286° |
| 2026-04-28 23:29 | 20.84256 | 100.36676 | 35939 ft | 448 kts | 287° |
| 2026-04-28 23:30 | 20.86052 | 100.30322 | 35939 ft | 448 kts | 286° |
| 2026-04-28 23:30 | 20.87806 | 100.23943 | 35939 ft | 448 kts | 286° |
| 2026-04-28 23:31 | 20.89554 | 100.17545 | 35939 ft | 448 kts | 285° |
| 2026-04-28 23:31 | 20.91286 | 100.11167 | 35939 ft | 448 kts | 285° |
| 2026-04-28 23:32 | 20.93009 | 100.04800 | 35939 ft | 448 kts | 285° |
| 2026-04-28 23:32 | 20.94739 | 99.98387 | 35939 ft | 448 kts | 285° |
| 2026-04-28 23:33 | 20.96464 | 99.91981 | 35939 ft | 448 kts | 285° |
| 2026-04-28 23:33 | 20.98183 | 99.85582 | 35939 ft | 449 kts | 285° |
| 2026-04-28 23:34 | 20.99896 | 99.79193 | 35939 ft | 449 kts | 285° |
| 2026-04-28 23:34 | 21.01603 | 99.72815 | 35939 ft | 449 kts | 285° |
| 2026-04-28 23:35 | 21.03318 | 99.66397 | 35938 ft | 448 kts | 285° |
| 2026-04-28 23:35 | 21.05021 | 99.60014 | 35939 ft | 447 kts | 284° |
| 2026-04-28 23:36 | 21.06724 | 99.53622 | 35939 ft | 446 kts | 284° |
| 2026-04-28 23:36 | 21.08413 | 99.47270 | 35939 ft | 445 kts | 284° |
| 2026-04-28 23:37 | 21.10097 | 99.40925 | 35938 ft | 443 kts | 284° |
| 2026-04-28 23:37 | 21.11768 | 99.34624 | 35939 ft | 441 kts | 283° |
| 2026-04-28 23:38 | 21.13434 | 99.28329 | 35939 ft | 439 kts | 283° |
| 2026-04-28 23:38 | 21.15091 | 99.22058 | 35939 ft | 440 kts | 283° |
| 2026-04-28 23:39 | 21.16752 | 99.15758 | 35939 ft | 441 kts | 283° |
| 2026-04-28 23:39 | 21.18417 | 99.09438 | 35939 ft | 440 kts | 283° |
| 2026-04-28 23:40 | 21.20068 | 99.03158 | 35939 ft | 441 kts | 284° |
| 2026-04-28 23:40 | 21.21732 | 98.96820 | 35939 ft | 441 kts | 284° |
| 2026-04-28 23:41 | 21.23387 | 98.90504 | 35939 ft | 442 kts | 284° |
| 2026-04-28 23:41 | 21.25035 | 98.84206 | 35939 ft | 442 kts | 285° |
| 2026-04-28 23:42 | 21.26692 | 98.77862 | 35939 ft | 442 kts | 285° |
| 2026-04-28 23:42 | 21.28335 | 98.71563 | 35939 ft | 442 kts | 285° |
| 2026-04-28 23:43 | 21.29991 | 98.65200 | 35939 ft | 442 kts | 285° |
| 2026-04-28 23:43 | 21.31637 | 98.58868 | 35939 ft | 442 kts | 285° |
| 2026-04-28 23:44 | 21.33274 | 98.52560 | 35939 ft | 442 kts | 285° |
| 2026-04-28 23:44 | 21.34909 | 98.46246 | 35939 ft | 442 kts | 285° |
| 2026-04-28 23:45 | 21.36550 | 98.39902 | 35939 ft | 442 kts | 285° |
| 2026-04-28 23:45 | 21.38186 | 98.33569 | 35939 ft | 442 kts | 284° |
| 2026-04-28 23:46 | 21.39819 | 98.27231 | 35939 ft | 442 kts | 284° |
| 2026-04-28 23:46 | 21.41446 | 98.20908 | 35939 ft | 442 kts | 284° |
| 2026-04-28 23:47 | 21.43081 | 98.14543 | 35939 ft | 442 kts | 284° |
| 2026-04-28 23:47 | 21.44708 | 98.08199 | 35822 ft | 444 kts | 284° |
| 2026-04-28 23:48 | 21.46336 | 98.01839 | 35804 ft | 441 kts | 284° |
| 2026-04-28 23:48 | 21.47951 | 97.95521 | 35804 ft | 441 kts | 284° |
| 2026-04-28 23:49 | 21.49570 | 97.89175 | 35804 ft | 442 kts | 284° |
| 2026-04-28 23:49 | 21.51191 | 97.82811 | 35803 ft | 442 kts | 284° |
| 2026-04-28 23:50 | 21.52802 | 97.76475 | 35804 ft | 441 kts | 284° |
| 2026-04-28 23:50 | 21.54406 | 97.70158 | 35804 ft | 441 kts | 284° |
| 2026-04-28 23:51 | 21.56012 | 97.63820 | 35804 ft | 441 kts | 284° |
| 2026-04-28 23:51 | 21.57624 | 97.57446 | 35804 ft | 441 kts | 284° |
| 2026-04-28 23:52 | 21.59222 | 97.51118 | 35804 ft | 441 kts | 284° |
| 2026-04-28 23:52 | 21.60827 | 97.44752 | 35803 ft | 441 kts | 284° |
| 2026-04-28 23:53 | 21.62422 | 97.38416 | 35804 ft | 441 kts | 284° |
| 2026-04-28 23:53 | 21.64019 | 97.32060 | 35804 ft | 441 kts | 284° |
| 2026-04-28 23:54 | 21.65617 | 97.25691 | 35804 ft | 441 kts | 284° |
| 2026-04-28 23:54 | 21.67205 | 97.19350 | 35804 ft | 441 kts | 284° |
| 2026-04-28 23:55 | 21.68793 | 97.12996 | 35804 ft | 441 kts | 284° |
| 2026-04-28 23:55 | 21.70377 | 97.06648 | 35804 ft | 440 kts | 283° |
| 2026-04-28 23:56 | 21.71947 | 97.00344 | 35804 ft | 438 kts | 283° |
| 2026-04-28 23:56 | 21.73513 | 96.94044 | 35803 ft | 437 kts | 283° |
| 2026-04-28 23:57 | 21.75082 | 96.87725 | 35804 ft | 437 kts | 283° |
| 2026-04-28 23:57 | 21.76640 | 96.81435 | 35804 ft | 437 kts | 283° |
| 2026-04-28 23:58 | 21.78197 | 96.75139 | 35804 ft | 437 kts | 283° |
| 2026-04-28 23:58 | 21.79756 | 96.68826 | 35804 ft | 437 kts | 283° |
| 2026-04-28 23:59 | 21.81315 | 96.62502 | 35804 ft | 437 kts | 283° |
| 2026-04-28 23:59 | 21.82864 | 96.56203 | 35804 ft | 437 kts | 283° |
| 2026-04-29 00:00 | 21.84411 | 96.49906 | 35803 ft | 437 kts | 283° |
| 2026-04-29 00:00 | 21.85953 | 96.43617 | 35804 ft | 437 kts | 283° |
| 2026-04-29 00:01 | 21.87506 | 96.37271 | 35803 ft | 437 kts | 283° |
| 2026-04-29 00:01 | 21.89047 | 96.30964 | 35804 ft | 437 kts | 283° |
| 2026-04-29 00:02 | 21.90584 | 96.24663 | 35804 ft | 437 kts | 283° |
| 2026-04-29 00:02 | 21.92126 | 96.18329 | 35804 ft | 437 kts | 283° |
| 2026-04-29 00:03 | 21.93425 | 96.11988 | 35886 ft | 435 kts | 275° |
| 2026-04-29 00:03 | 21.93996 | 96.05496 | 35884 ft | 435 kts | 274° |
| 2026-04-29 00:04 | 21.94603 | 95.99058 | 35884 ft | 434 kts | 274° |
| 2026-04-29 00:04 | 21.95183 | 95.92618 | 35885 ft | 434 kts | 274° |
| 2026-04-29 00:05 | 21.95753 | 95.86140 | 35885 ft | 434 kts | 274° |
| 2026-04-29 00:05 | 21.96313 | 95.79702 | 35885 ft | 434 kts | 274° |
| 2026-04-29 00:06 | 21.96873 | 95.73209 | 35885 ft | 434 kts | 274° |
| 2026-04-29 00:06 | 21.97423 | 95.66779 | 35885 ft | 434 kts | 274° |
| 2026-04-29 00:07 | 21.97973 | 95.60302 | 35885 ft | 434 kts | 274° |
| 2026-04-29 00:07 | 21.98519 | 95.53851 | 35885 ft | 434 kts | 274° |
| 2026-04-29 00:08 | 21.99063 | 95.47385 | 35885 ft | 434 kts | 274° |
| 2026-04-29 00:08 | 21.99605 | 95.40906 | 35885 ft | 434 kts | 274° |
| 2026-04-29 00:09 | 22.00145 | 95.34431 | 35885 ft | 434 kts | 273° |
| 2026-04-29 00:09 | 22.00679 | 95.27992 | 35885 ft | 434 kts | 273° |
| 2026-04-29 00:10 | 22.01215 | 95.21506 | 35885 ft | 434 kts | 273° |
| 2026-04-29 00:10 | 22.01743 | 95.15076 | 35885 ft | 434 kts | 273° |
| 2026-04-29 00:11 | 22.02272 | 95.08601 | 35885 ft | 434 kts | 273° |
| 2026-04-29 00:12 | 22.03059 | 94.98914 | 35863 ft | 435 kts | 273° |
| 2026-04-29 00:12 | 22.03583 | 94.92415 | 35824 ft | 435 kts | 273° |
| 2026-04-29 00:13 | 22.04103 | 94.85951 | 35784 ft | 436 kts | 273° |
| 2026-04-29 00:13 | 22.04621 | 94.79462 | 35739 ft | 437 kts | 273° |
| 2026-04-29 00:14 | 22.05141 | 94.72923 | 35721 ft | 436 kts | 273° |
| 2026-04-29 00:14 | 22.05653 | 94.66457 | 35709 ft | 436 kts | 273° |
| 2026-04-29 00:15 | 22.06165 | 94.59950 | 35700 ft | 436 kts | 273° |
| 2026-04-29 00:15 | 22.06674 | 94.53448 | 35695 ft | 436 kts | 273° |
| 2026-04-29 00:16 | 22.07181 | 94.46943 | 35695 ft | 436 kts | 273° |
| 2026-04-29 00:16 | 22.07684 | 94.40445 | 35695 ft | 436 kts | 273° |
| 2026-04-29 00:17 | 22.08187 | 94.33933 | 35696 ft | 436 kts | 272° |
| 2026-04-29 00:17 | 22.08686 | 94.27430 | 35696 ft | 436 kts | 272° |
| 2026-04-29 00:18 | 22.09181 | 94.20957 | 35758 ft | 433 kts | 272° |
| 2026-04-29 00:18 | 22.09427 | 94.17729 | 35961 ft | 431 kts | 272° |
| 2026-04-29 00:18 | 22.09671 | 94.14508 | 35969 ft | 433 kts | 272° |
| 2026-04-29 00:19 | 22.10160 | 94.08023 | 35966 ft | 436 kts | 272° |
| 2026-04-29 00:19 | 22.10648 | 94.01527 | 35965 ft | 436 kts | 272° |
| 2026-04-29 00:20 | 22.11132 | 93.95046 | 35966 ft | 435 kts | 272° |
| 2026-04-29 00:20 | 22.11616 | 93.88546 | 35966 ft | 435 kts | 272° |
| 2026-04-29 00:21 | 22.12096 | 93.82049 | 35966 ft | 435 kts | 272° |
| 2026-04-29 00:21 | 22.12572 | 93.75573 | 35966 ft | 435 kts | 272° |
| 2026-04-29 00:22 | 22.13048 | 93.69061 | 35966 ft | 435 kts | 272° |
| 2026-04-29 00:22 | 22.13521 | 93.62563 | 35966 ft | 435 kts | 272° |
| 2026-04-29 00:23 | 22.13988 | 93.56101 | 35966 ft | 435 kts | 272° |
| 2026-04-29 00:23 | 22.14458 | 93.49575 | 35966 ft | 435 kts | 272° |
| 2026-04-29 00:24 | 22.14921 | 93.43104 | 35966 ft | 435 kts | 272° |
| 2026-04-29 00:24 | 22.15382 | 93.36616 | 35966 ft | 435 kts | 272° |
| 2026-04-29 00:25 | 22.15842 | 93.30115 | 35966 ft | 435 kts | 272° |
| 2026-04-29 00:25 | 22.16297 | 93.23624 | 35966 ft | 435 kts | 272° |
| 2026-04-29 00:26 | 22.16753 | 93.17107 | 35966 ft | 435 kts | 272° |
| 2026-04-29 00:26 | 22.17204 | 93.10620 | 35966 ft | 435 kts | 272° |
| 2026-04-29 00:27 | 22.17653 | 93.04137 | 35966 ft | 434 kts | 272° |
| 2026-04-29 00:27 | 22.18097 | 92.97673 | 35966 ft | 432 kts | 272° |
| 2026-04-29 00:28 | 22.18538 | 92.91221 | 35966 ft | 431 kts | 272° |
| 2026-04-29 00:28 | 22.18974 | 92.84801 | 35947 ft | 430 kts | 272° |
| 2026-04-29 00:29 | 22.19405 | 92.78413 | 35898 ft | 430 kts | 272° |
| 2026-04-29 00:29 | 22.19835 | 92.72000 | 35848 ft | 430 kts | 272° |
| 2026-04-29 00:30 | 22.20266 | 92.65551 | 35797 ft | 430 kts | 272° |
| 2026-04-29 00:30 | 22.20670 | 92.59134 | 35776 ft | 429 kts | 271° |
| 2026-04-29 00:31 | 22.21057 | 92.52728 | 35777 ft | 429 kts | 271° |
| 2026-04-29 00:31 | 22.21447 | 92.46320 | 35777 ft | 430 kts | 271° |
| 2026-04-29 00:32 | 22.21834 | 92.39907 | 35777 ft | 430 kts | 271° |
| 2026-04-29 00:32 | 22.22218 | 92.33510 | 35777 ft | 430 kts | 271° |
| 2026-04-29 00:33 | 22.22603 | 92.27059 | 35777 ft | 430 kts | 271° |
| 2026-04-29 00:33 | 22.23059 | 92.20648 | 35803 ft | 430 kts | 272° |
| 2026-04-29 00:34 | 22.23531 | 92.14252 | 35803 ft | 430 kts | 272° |
| 2026-04-29 00:34 | 22.23993 | 92.07836 | 35804 ft | 430 kts | 272° |
| 2026-04-29 00:35 | 22.24454 | 92.01408 | 35804 ft | 430 kts | 272° |
| 2026-04-29 00:35 | 22.24912 | 91.94978 | 35804 ft | 430 kts | 272° |
| 2026-04-29 00:36 | 22.25509 | 91.88605 | 35802 ft | 432 kts | 279° |
| 2026-04-29 00:36 | 22.27638 | 91.82547 | 35805 ft | 438 kts | 300° |
| 2026-04-29 00:37 | 22.31601 | 91.77500 | 35806 ft | 445 kts | 316° |